createdAt,value
2022-07-27T06:08:49.298Z,16.75
2022-07-27T06:11:26.531Z,16.72
2022-07-27T06:14:03.352Z,16.75
2022-07-27T06:16:40.551Z,16.80
2022-07-27T06:19:17.445Z,16.84
2022-07-27T06:21:55.081Z,16.90
2022-07-27T06:24:34.539Z,16.86
2022-07-27T06:27:11.520Z,16.89
2022-07-27T06:29:48.281Z,16.93
2022-07-27T06:32:25.249Z,16.99
2022-07-27T06:35:01.846Z,16.99
2022-07-27T06:37:44.308Z,17.10
2022-07-27T06:40:27.344Z,17.19
2022-07-27T06:43:06.849Z,17.27
2022-07-27T06:45:43.543Z,17.32
2022-07-27T06:48:21.583Z,17.37
2022-07-27T06:50:58.314Z,17.35
2022-07-27T06:53:36.756Z,17.31
2022-07-27T06:56:17.126Z,17.37
2022-07-27T06:58:54.421Z,17.39
2022-07-27T07:01:33.147Z,17.34
2022-07-27T07:04:11.367Z,17.39
2022-07-27T07:06:48.991Z,17.33
2022-07-27T07:09:26.219Z,17.38
2022-07-27T07:12:06.010Z,17.37
2022-07-27T07:14:44.278Z,17.41
2022-07-27T07:17:20.966Z,17.49
2022-07-27T07:19:57.977Z,17.53
2022-07-27T07:22:34.687Z,17.56
2022-07-27T07:25:12.614Z,17.58
2022-07-27T07:27:52.245Z,17.70
2022-07-27T07:30:30.057Z,17.77
2022-07-27T07:33:07.927Z,17.87
2022-07-27T07:36:14.192Z,17.92
2022-07-27T07:38:42.098Z,18.03
2022-07-27T07:41:19.118Z,18.08
2022-07-27T07:43:58.569Z,18.17
2022-07-27T07:46:37.345Z,18.30
2022-07-27T07:49:14.610Z,18.32
2022-07-27T07:51:52.084Z,18.37
2022-07-27T07:54:28.899Z,18.39
2022-07-27T07:57:06.338Z,18.42
2022-07-27T07:59:45.859Z,18.52
2022-07-27T08:02:23.328Z,18.59
2022-07-27T08:05:00.273Z,18.58
2022-07-27T08:07:37.309Z,18.62
2022-07-27T08:10:15.938Z,18.59
2022-07-27T08:12:56.922Z,18.59
2022-07-27T08:15:36.758Z,18.63
2022-07-27T08:18:14.018Z,18.67
2022-07-27T08:20:51.037Z,18.68
2022-07-27T08:23:28.717Z,18.73
2022-07-27T08:26:08.027Z,18.71
2022-07-27T08:28:45.767Z,18.67
2022-07-27T08:31:51.009Z,18.64
2022-07-27T08:34:22.796Z,18.52
2022-07-27T08:37:00.055Z,18.49
2022-07-27T08:42:35.590Z,18.48
2022-07-27T08:45:16.797Z,18.48
2022-07-27T08:47:57.102Z,18.46
2022-07-27T08:50:35.756Z,18.43
2022-07-27T08:53:17.189Z,18.39
2022-07-27T08:55:57.112Z,18.36
2022-07-27T08:58:33.995Z,18.37
2022-07-27T09:01:11.248Z,18.34
2022-07-27T09:03:50.807Z,18.44
2022-07-27T09:06:53.365Z,18.54
2022-07-27T09:09:31.247Z,18.55
2022-07-27T09:12:11.687Z,18.70
2022-07-27T09:14:52.871Z,18.77
2022-07-27T09:17:49.170Z,18.85
2022-07-27T09:20:29.287Z,19.00
2022-07-27T09:23:07.336Z,18.90
2022-07-27T09:26:02.967Z,18.91
2022-07-27T09:28:41.767Z,18.74
2022-07-27T09:31:19.739Z,18.84
2022-07-27T09:33:58.875Z,18.92
2022-07-27T09:36:52.448Z,18.95
2022-07-27T09:39:31.180Z,18.97
2022-07-27T09:42:09.346Z,19.15
2022-07-27T09:44:57.466Z,19.30
2022-07-27T09:47:35.207Z,19.40
2022-07-27T09:50:24.096Z,19.36
2022-07-27T09:53:42.280Z,19.45
2022-07-27T09:56:19.987Z,19.36
2022-07-27T09:58:59.456Z,19.47
2022-07-27T10:01:46.779Z,19.49
2022-07-27T10:04:26.801Z,19.53
2022-07-27T10:07:08.345Z,19.56
2022-07-27T10:09:52.186Z,19.77
2022-07-27T10:12:32.008Z,19.81
2022-07-27T10:15:10.798Z,19.82
2022-07-27T10:17:48.867Z,19.74
2022-07-27T10:20:25.736Z,19.39
2022-07-27T10:23:04.347Z,19.18
2022-07-27T10:25:48.257Z,18.91
2022-07-27T10:28:25.988Z,18.71
2022-07-27T10:31:20.734Z,18.67
2022-07-27T10:34:00.659Z,18.59
2022-07-27T10:36:56.588Z,18.58
2022-07-27T10:39:40.925Z,18.55
2022-07-27T10:42:41.419Z,18.63
2022-07-27T10:45:20.316Z,18.62
2022-07-27T10:47:57.597Z,18.73
2022-07-27T10:50:35.929Z,18.83
2022-07-27T10:53:16.973Z,19.05
2022-07-27T10:55:56.939Z,19.17
2022-07-27T10:58:57.102Z,19.26
2022-07-27T11:01:34.284Z,19.26
2022-07-27T11:04:14.027Z,19.33
2022-07-27T11:07:23.189Z,19.25
2022-07-27T11:10:06.299Z,19.19
2022-07-27T11:12:44.599Z,19.18
2022-07-27T11:15:24.518Z,19.12
2022-07-27T11:18:04.960Z,18.99
2022-07-27T11:20:42.165Z,18.90
2022-07-27T11:23:50.558Z,18.79
2022-07-27T11:26:20.834Z,18.72
2022-07-27T11:28:58.689Z,18.58
2022-07-27T11:31:57.129Z,18.32
2022-07-27T11:34:38.168Z,18.26
2022-07-27T11:37:19.531Z,18.17
2022-07-27T11:40:27.859Z,18.11
2022-07-27T11:43:00.180Z,18.06
2022-07-27T11:45:40.185Z,18.11
2022-07-27T11:48:21.701Z,18.25
2022-07-27T11:51:02.195Z,18.34
2022-07-27T11:53:39.822Z,18.43
2022-07-27T11:56:24.639Z,18.53
2022-07-27T11:59:15.549Z,18.62
2022-07-27T12:01:56.736Z,18.69
2022-07-27T12:04:39.760Z,18.71
2022-07-27T12:07:22.501Z,18.75
2022-07-27T12:10:02.952Z,18.99
2022-07-27T12:12:43.134Z,19.30
2022-07-27T12:18:24.919Z,19.86
2022-07-27T12:21:20.572Z,19.88
2022-07-27T12:23:59.033Z,19.96
2022-07-27T12:26:37.716Z,19.87
2022-07-27T12:29:18.288Z,19.53
2022-07-27T12:31:57.975Z,19.46
2022-07-27T12:34:39.242Z,19.18
2022-07-27T12:37:19.059Z,19.04
2022-07-27T12:39:56.301Z,18.96
2022-07-27T12:42:40.152Z,18.95
2022-07-27T12:45:23.283Z,19.03
2022-07-27T12:48:11.447Z,19.08
2022-07-27T12:50:59.979Z,19.27
2022-07-27T12:53:41.852Z,19.41
2022-07-27T12:56:26.971Z,19.49
2022-07-27T12:59:06.812Z,19.77
2022-07-27T13:01:44.051Z,19.71
2022-07-27T13:04:20.719Z,19.81
2022-07-27T13:06:57.727Z,20.10
2022-07-27T13:10:03.175Z,20.50
2022-07-27T13:12:34.283Z,20.94
2022-07-27T13:15:13.423Z,21.33
2022-07-27T13:17:51.332Z,21.72
2022-07-27T13:20:28.192Z,22.22
2022-07-27T13:23:05.967Z,22.58
2022-07-27T13:25:45.307Z,22.51
2022-07-27T13:28:22.701Z,22.48
2022-07-27T13:30:59.794Z,22.18
2022-07-27T13:33:36.851Z,21.69
2022-07-27T13:36:13.633Z,21.59
2022-07-27T13:38:50.732Z,21.23
2022-07-27T13:41:30.253Z,21.02
2022-07-27T13:44:12.430Z,20.93
2022-07-27T13:46:56.110Z,20.54
2022-07-27T13:49:33.491Z,20.35
2022-07-27T13:52:15.214Z,20.28
2022-07-27T13:54:52.890Z,20.23
2022-07-27T13:57:32.346Z,20.16
2022-07-27T14:00:11.799Z,19.91
2022-07-27T14:02:49.227Z,19.98
2022-07-27T14:05:26.996Z,20.15
2022-07-27T14:08:05.392Z,20.29
2022-07-27T14:10:42.874Z,20.50
2022-07-27T14:13:23.287Z,20.38
2022-07-27T14:16:00.827Z,20.14
2022-07-27T14:18:38.715Z,20.72
2022-07-27T14:21:16.215Z,21.47
2022-07-27T14:23:53.373Z,21.79
2022-07-27T14:26:30.916Z,22.13
2022-07-27T14:29:10.674Z,22.11
2022-07-27T14:31:48.782Z,21.94
2022-07-27T14:34:25.541Z,21.55
2022-07-27T14:37:03.181Z,21.52
2022-07-27T14:39:41.079Z,21.32
2022-07-27T14:42:20.018Z,21.14
2022-07-27T14:44:59.694Z,20.94
2022-07-27T14:47:36.913Z,20.61
2022-07-27T14:50:14.112Z,20.38
2022-07-27T14:52:51.292Z,20.21
2022-07-27T14:55:28.403Z,20.01
2022-07-27T14:58:05.806Z,19.89
2022-07-27T15:00:45.572Z,19.72
2022-07-27T15:03:23.031Z,19.68
2022-07-27T15:05:59.931Z,19.60
2022-07-27T15:08:37.062Z,19.59
2022-07-27T15:11:14.146Z,19.50
2022-07-27T15:13:51.683Z,19.43
2022-07-27T15:16:32.004Z,19.24
2022-07-27T15:19:10.078Z,19.23
2022-07-27T15:21:47.486Z,19.21
2022-07-27T15:24:24.692Z,19.10
2022-07-27T15:27:01.472Z,19.03
2022-07-27T15:29:39.079Z,19.05
2022-07-27T15:32:18.553Z,19.07
2022-07-27T15:34:56.552Z,19.07
2022-07-27T15:37:33.482Z,19.04
2022-07-27T15:40:25.400Z,19.09
2022-07-27T15:43:02.303Z,19.13
2022-07-27T15:45:39.539Z,19.19
2022-07-27T15:48:20.501Z,19.30
2022-07-27T15:50:58.838Z,19.39
2022-07-27T15:53:35.693Z,19.28
2022-07-27T15:56:12.712Z,19.17
2022-07-27T15:58:49.510Z,19.00
2022-07-27T16:01:35.301Z,18.90
2022-07-27T16:04:15.650Z,18.75
2022-07-27T16:06:52.839Z,18.68
2022-07-27T16:09:29.580Z,18.61
2022-07-27T16:12:07.031Z,18.46
2022-07-27T16:14:43.871Z,18.26
2022-07-27T16:17:21.031Z,18.08
2022-07-27T16:20:00.620Z,17.90
2022-07-27T16:22:39.805Z,17.71
2022-07-27T16:25:16.603Z,17.49
2022-07-27T16:27:53.663Z,17.29
2022-07-27T16:30:36.424Z,17.17
2022-07-27T16:33:15.332Z,17.12
2022-07-27T16:35:54.704Z,17.07
2022-07-27T16:38:32.061Z,17.08
2022-07-27T16:41:11.354Z,17.04
2022-07-27T16:43:48.669Z,17.07
2022-07-27T16:46:26.102Z,17.04
2022-07-27T16:49:03.929Z,16.98
2022-07-27T16:51:43.706Z,16.95
2022-07-27T16:54:20.775Z,16.95
2022-07-27T16:56:57.994Z,16.86
2022-07-27T16:59:39.768Z,16.76
2022-07-27T17:02:19.408Z,16.61
2022-07-27T17:04:56.509Z,16.62
2022-07-27T17:07:36.530Z,16.67
